sensor_id;sensor_type;location;lat;lon;timestamp;pressure;altitude;pressure_sealevel;temperature;humidity
3590;BME280;1809;48.470;9.226;2022-12-18T00:00:42;132444.63;;;-11.00;100.00
3590;BME280;1809;48.470;9.226;2022-12-18T00:03:08;132086.34;;;-11.11;100.00
3590;BME280;1809;48.470;9.226;2022-12-18T00:05:34;132101.94;;;-11.04;100.00
3590;BME280;1809;48.470;9.226;2022-12-18T00:08:00;132099.69;;;-11.05;100.00
3590;BME280;1809;48.470;9.226;2022-12-18T00:10:27;132095.25;;;-11.07;100.00
3590;BME280;1809;48.470;9.226;2022-12-18T00:12:52;132111.97;;;-10.99;100.00
3590;BME280;1809;48.470;9.226;2022-12-18T00:15:17;132110.84;;;-11.00;100.00
3590;BME280;1809;48.470;9.226;2022-12-18T00:17:43;131767.06;;;-11.04;100.00
3590;BME280;1809;48.470;9.226;2022-12-18T00:20:08;131414.59;;;-11.13;100.00
3590;BME280;1809;48.470;9.226;2022-12-18T00:22:34;131412.38;;;-11.14;100.00
3590;BME280;1809;48.470;9.226;2022-12-18T00:24:59;130729.78;;;-11.21;100.00
3590;BME280;1809;48.470;9.226;2022-12-18T00:27:25;130723.19;;;-11.24;100.00
3590;BME280;1809;48.470;9.226;2022-12-18T00:29:50;130387.47;;;-11.25;100.00
3590;BME280;1809;48.470;9.226;2022-12-18T00:32:15;130052.91;;;-11.25;100.00
3590;BME280;1809;48.470;9.226;2022-12-18T00:34:40;129706.41;;;-11.31;100.00
3590;BME280;1809;48.470;9.226;2022-12-18T00:37:06;129709.66;;;-11.30;100.00
3590;BME280;1809;48.470;9.226;2022-12-18T00:39:31;129712.94;;;-11.28;100.00
3590;BME280;1809;48.470;9.226;2022-12-18T00:41:56;129025.59;;;-11.38;100.00
3590;BME280;1809;48.470;9.226;2022-12-18T00:44:40;128677.19;;;-11.45;100.00
3590;BME280;1809;48.470;9.226;2022-12-18T00:47:06;128342.91;;;-11.46;100.00
3590;BME280;1809;48.470;9.226;2022-12-18T00:49:31;128341.84;;;-11.46;100.00
3590;BME280;1809;48.470;9.226;2022-12-18T00:51:56;127995.78;;;-11.52;100.00
3590;BME280;1809;48.470;9.226;2022-12-18T00:54:22;126962.44;;;-11.68;100.00
3590;BME280;1809;48.470;9.226;2022-12-18T00:56:47;127311.41;;;-11.61;100.00
3590;BME280;1809;48.470;9.226;2022-12-18T00:59:12;126612.53;;;-11.76;100.00
3590;BME280;1809;48.470;9.226;2022-12-18T01:01:38;126617.88;;;-11.74;100.00
3590;BME280;1809;48.470;9.226;2022-12-18T01:04:04;126288.22;;;-11.72;100.00
3590;BME280;1809;48.470;9.226;2022-12-18T01:06:30;126283.97;;;-11.74;100.00
3590;BME280;1809;48.470;9.226;2022-12-18T01:08:56;126645.50;;;-11.61;100.00
3590;BME280;1809;48.470;9.226;2022-12-18T01:11:21;126295.63;;;-11.69;100.00
3590;BME280;1809;48.470;9.226;2022-12-18T01:13:47;125955.41;;;-11.72;100.00
3590;BME280;1809;48.470;9.226;2022-12-18T01:16:14;126298.78;;;-11.67;100.00
3590;BME280;1809;48.470;9.226;2022-12-18T01:18:40;125946.91;;;-11.76;100.00
3590;BME280;1809;48.470;9.226;2022-12-18T01:21:08;125611.00;;;-11.78;100.00
3590;BME280;1809;48.470;9.226;2022-12-18T01:23:33;125613.13;;;-11.77;100.00
3590;BME280;1809;48.470;9.226;2022-12-18T01:26:04;125266.72;;;-11.83;100.00
3590;BME280;1809;48.470;9.226;2022-12-18T01:28:29;125268.78;;;-11.82;100.00
3590;BME280;1809;48.470;9.226;2022-12-18T01:30:54;124583.59;;;-11.92;100.00
3590;BME280;1809;48.470;9.226;2022-12-18T01:33:20;124929.84;;;-11.85;100.00
3590;BME280;1809;48.470;9.226;2022-12-18T01:35:45;124943.50;;;-11.79;100.00
3590;BME280;1809;48.470;9.226;2022-12-18T01:38:10;124607.72;;;-11.80;100.00
3590;BME280;1809;48.470;9.226;2022-12-18T01:40:36;124263.59;;;-11.86;100.00
3590;BME280;1809;48.470;9.226;2022-12-18T01:43:01;124615.06;;;-11.77;100.00
3590;BME280;1809;48.470;9.226;2022-12-18T01:45:30;124283.44;;;-11.76;100.00
3590;BME280;1809;48.470;9.226;2022-12-18T01:47:59;123938.34;;;-11.82;100.00
3590;BME280;1809;48.470;9.226;2022-12-18T01:50:40;123944.59;;;-11.79;100.00
3590;BME280;1809;48.470;9.226;2022-12-18T01:53:11;124295.97;;;-11.70;100.00
3590;BME280;1809;48.470;9.226;2022-12-18T01:55:46;124287.63;;;-11.74;100.00
3590;BME280;1809;48.470;9.226;2022-12-18T01:58:12;124642.22;;;-11.64;100.00
3590;BME280;1809;48.470;9.226;2022-12-18T02:00:37;124647.50;;;-11.61;100.00
3590;BME280;1809;48.470;9.226;2022-12-18T02:03:03;124655.84;;;-11.57;100.00
3590;BME280;1809;48.470;9.226;2022-12-18T02:08:15;124315.78;;;-11.61;100.00
3590;BME280;1809;48.470;9.226;2022-12-18T02:10:56;124321.03;;;-11.58;100.00
3590;BME280;1809;48.470;9.226;2022-12-18T02:18:36;124683.09;;;-11.44;100.00
3590;BME280;1809;48.470;9.226;2022-12-18T02:26:41;125045.34;;;-11.30;100.00
3590;BME280;1809;48.470;9.226;2022-12-18T02:29:12;124371.19;;;-11.34;100.00
3590;BME280;1809;48.470;9.226;2022-12-18T02:31:42;124039.38;;;-11.33;100.00
3590;BME280;1809;48.470;9.226;2022-12-18T02:34:10;122672.22;;;-11.51;100.00
3590;BME280;1809;48.470;9.226;2022-12-18T02:36:39;122681.50;;;-11.47;100.00
3590;BME280;1809;48.470;9.226;2022-12-18T02:39:08;122690.75;;;-11.42;100.00
3590;BME280;1809;48.470;9.226;2022-12-18T02:41:34;122696.94;;;-11.39;100.00
3590;BME280;1809;48.470;9.226;2022-12-18T02:44:07;122710.34;;;-11.32;100.00
3590;BME280;1809;48.470;9.226;2022-12-18T02:46:38;122377.66;;;-11.32;100.00
3590;BME280;1809;48.470;9.226;2022-12-18T02:49:44;122031.66;;;-11.39;100.00
3590;BME280;1809;48.470;9.226;2022-12-18T02:52:20;121697.03;;;-11.40;100.00
3590;BME280;1809;48.470;9.226;2022-12-18T02:57:36;120681.22;;;-11.49;100.00
3590;BME280;1809;48.470;9.226;2022-12-18T03:00:14;120693.38;;;-11.43;100.00
3590;BME280;1809;48.470;9.226;2022-12-18T03:03:03;120693.38;;;-11.43;100.00
3590;BME280;1809;48.470;9.226;2022-12-18T03:05:53;120364.97;;;-11.41;100.00
3590;BME280;1809;48.470;9.226;2022-12-18T03:08:22;120367.00;;;-11.40;100.00
3590;BME280;1809;48.470;9.226;2022-12-18T03:10:55;120369.00;;;-11.39;100.00
3590;BME280;1809;48.470;9.226;2022-12-18T03:13:31;121059.38;;;-11.26;100.00
3590;BME280;1809;48.470;9.226;2022-12-18T03:15:58;120721.75;;;-11.29;100.00
3590;BME280;1809;48.470;9.226;2022-12-18T03:18:30;120379.13;;;-11.34;100.00
3590;BME280;1809;48.470;9.226;2022-12-18T03:21:00;120727.81;;;-11.26;100.00
3590;BME280;1809;48.470;9.226;2022-12-18T03:23:33;121418.50;;;-11.13;100.00
3590;BME280;1809;48.470;9.226;2022-12-18T03:26:05;120744.06;;;-11.18;100.00
3590;BME280;1809;48.470;9.226;2022-12-18T03:28:34;121080.75;;;-11.16;100.00
3590;BME280;1809;48.470;9.226;2022-12-18T03:31:04;121082.78;;;-11.15;100.00
3590;BME280;1809;48.470;9.226;2022-12-18T03:33:37;121776.75;;;-11.01;100.00
3590;BME280;1809;48.470;9.226;2022-12-18T03:36:04;121435.81;;;-11.05;100.00
3590;BME280;1809;48.470;9.226;2022-12-18T03:38:29;121090.88;;;-11.11;100.00
3590;BME280;1809;48.470;9.226;2022-12-18T03:41:33;121441.94;;;-11.02;100.00
3590;BME280;1809;48.470;9.226;2022-12-18T03:46:58;121093.97;;;-11.09;100.00
3590;BME280;1809;48.470;9.226;2022-12-18T03:54:28;121780.84;;;-10.99;100.00
3590;BME280;1809;48.470;9.226;2022-12-18T03:56:59;122121.88;;;-10.95;100.00
3590;BME280;1809;48.470;9.226;2022-12-18T03:59:27;122467.09;;;-10.88;100.00
3590;BME280;1809;48.470;9.226;2022-12-18T04:01:54;122463.00;;;-10.90;100.00
3590;BME280;1809;48.470;9.226;2022-12-18T04:04:22;122454.75;;;-10.95;100.00
3590;BME280;1809;48.470;9.226;2022-12-18T04:06:50;122115.72;;;-10.98;100.00
3590;BME280;1809;48.470;9.226;2022-12-18T04:09:16;122107.50;;;-11.02;100.00
3590;BME280;1809;48.470;9.226;2022-12-18T04:11:42;121764.50;;;-11.07;100.00
3590;BME280;1809;48.470;9.226;2022-12-18T04:14:10;121776.75;;;-11.01;100.00
3590;BME280;1809;48.470;9.226;2022-12-18T04:16:36;121430.72;;;-11.07;100.00
3590;BME280;1809;48.470;9.226;2022-12-18T04:19:02;121790.06;;;-10.94;100.00
3590;BME280;1809;48.470;9.226;2022-12-18T04:21:31;121790.06;;;-10.94;100.00
3590;BME280;1809;48.470;9.226;2022-12-18T04:23:57;121794.13;;;-10.92;100.00
3590;BME280;1809;48.470;9.226;2022-12-18T04:26:22;121462.34;;;-10.92;100.00
3590;BME280;1809;48.470;9.226;2022-12-18T04:28:49;121816.66;;;-10.81;100.00
3590;BME280;1809;48.470;9.226;2022-12-18T04:31:21;121133.59;;;-10.89;100.00
3590;BME280;1809;48.470;9.226;2022-12-18T04:33:46;120807.91;;;-10.86;100.00
3590;BME280;1809;48.470;9.226;2022-12-18T04:36:12;120482.22;;;-10.82;100.00
3590;BME280;1809;48.470;9.226;2022-12-18T04:38:40;120145.44;;;-10.84;100.00
3590;BME280;1809;48.470;9.226;2022-12-18T04:41:12;119808.72;;;-10.86;100.00
3590;BME280;1809;48.470;9.226;2022-12-18T04:43:41;119123.41;;;-10.97;100.00
3590;BME280;1809;48.470;9.226;2022-12-18T04:46:07;119816.72;;;-10.82;100.00
3590;BME280;1809;48.470;9.226;2022-12-18T04:48:37;119812.72;;;-10.84;100.00
3590;BME280;1809;48.470;9.226;2022-12-18T04:51:06;119123.41;;;-10.97;100.00
3590;BME280;1809;48.470;9.226;2022-12-18T04:53:32;119128.38;;;-10.94;100.00
3590;BME280;1809;48.470;9.226;2022-12-18T04:56:08;119135.38;;;-10.90;100.00
3590;BME280;1809;48.470;9.226;2022-12-18T04:58:35;119473.00;;;-10.88;100.00
3590;BME280;1809;48.470;9.226;2022-12-18T05:01:01;119469.03;;;-10.90;100.00
3590;BME280;1809;48.470;9.226;2022-12-18T05:03:28;120149.47;;;-10.82;100.00
3590;BME280;1809;48.470;9.226;2022-12-18T05:05:53;119464.97;;;-10.92;100.00
3590;BME280;1809;48.470;9.226;2022-12-18T05:08:19;119800.66;;;-10.90;100.00
3590;BME280;1809;48.470;9.226;2022-12-18T05:10:44;119798.63;;;-10.92;100.00
3590;BME280;1809;48.470;9.226;2022-12-18T05:13:10;118770.91;;;-11.07;100.00
3590;BME280;1809;48.470;9.226;2022-12-18T05:15:36;119101.38;;;-11.08;100.00
3590;BME280;1809;48.470;9.226;2022-12-18T05:18:03;120138.38;;;-10.88;100.00
3590;BME280;1809;48.470;9.226;2022-12-18T05:20:29;119802.63;;;-10.89;100.00
3590;BME280;1809;48.470;9.226;2022-12-18T05:22:55;119459.97;;;-10.95;100.00
3590;BME280;1809;48.470;9.226;2022-12-18T05:25:22;119119.38;;;-10.99;100.00
3590;BME280;1809;48.470;9.226;2022-12-18T05:27:47;120149.47;;;-10.82;100.00
3590;BME280;1809;48.470;9.226;2022-12-18T05:30:14;120490.31;;;-10.78;100.00
3590;BME280;1809;48.470;9.226;2022-12-18T05:32:40;120137.34;;;-10.88;100.00
3590;BME280;1809;48.470;9.226;2022-12-18T05:35:07;120129.28;;;-10.93;100.00
3590;BME280;1809;48.470;9.226;2022-12-18T05:37:34;120131.31;;;-10.92;100.00
3590;BME280;1809;48.470;9.226;2022-12-18T05:40:00;120470.09;;;-10.88;100.00
3590;BME280;1809;48.470;9.226;2022-12-18T05:42:26;121147.81;;;-10.82;100.00
3590;BME280;1809;48.470;9.226;2022-12-18T05:44:52;121482.72;;;-10.81;100.00
3590;BME280;1809;48.470;9.226;2022-12-18T05:47:17;120802.84;;;-10.88;100.00
3590;BME280;1809;48.470;9.226;2022-12-18T05:49:43;120788.63;;;-10.96;100.00
3590;BME280;1809;48.470;9.226;2022-12-18T05:52:12;120794.72;;;-10.93;100.00
3590;BME280;1809;48.470;9.226;2022-12-18T05:54:40;120795.75;;;-10.92;100.00
3590;BME280;1809;48.470;9.226;2022-12-18T05:57:12;120791.69;;;-10.94;100.00
3590;BME280;1809;48.470;9.226;2022-12-18T05:59:40;120786.63;;;-10.97;100.00
3590;BME280;1809;48.470;9.226;2022-12-18T06:02:09;121472.56;;;-10.86;100.00
3590;BME280;1809;48.470;9.226;2022-12-18T06:04:35;123202.31;;;-10.55;100.00
3590;BME280;1809;48.470;9.226;2022-12-18T06:07:01;122150.59;;;-10.80;100.00
3590;BME280;1809;48.470;9.226;2022-12-18T06:09:29;122839.22;;;-10.69;100.00
3590;BME280;1809;48.470;9.226;2022-12-18T06:11:55;122826.84;;;-10.75;100.00
3590;BME280;1809;48.470;9.226;2022-12-18T06:14:20;122144.47;;;-10.83;100.00
3590;BME280;1809;48.470;9.226;2022-12-18T06:16:45;120766.34;;;-11.07;100.00
3590;BME280;1809;48.470;9.226;2022-12-18T06:19:14;120778.50;;;-11.01;100.00
3590;BME280;1809;48.470;9.226;2022-12-18T06:21:40;123545.91;;;-10.50;100.00
3590;BME280;1809;48.470;9.226;2022-12-18T06:24:06;124562.50;;;-10.42;100.00
3590;BME280;1809;48.470;9.226;2022-12-18T06:26:31;124548.88;;;-10.48;100.00
3590;BME280;1809;48.470;9.226;2022-12-18T06:28:57;126282.84;;;-10.16;100.00
3590;BME280;1809;48.470;9.226;2022-12-18T06:31:22;126611.22;;;-10.19;100.00
3590;BME280;1809;48.470;9.226;2022-12-18T06:33:47;126604.84;;;-10.22;100.00
3590;BME280;1809;48.470;9.226;2022-12-18T06:36:13;126260.56;;;-10.27;100.00
3590;BME280;1809;48.470;9.226;2022-12-18T06:38:40;130445.97;;;-9.44;100.00
3590;BME280;1809;48.470;9.226;2022-12-18T06:41:14;130056.88;;;-9.69;100.00
3590;BME280;1809;48.470;9.226;2022-12-18T06:43:40;128660.47;;;-9.97;100.00
3590;BME280;1809;48.470;9.226;2022-12-18T06:46:06;125542.75;;;-10.51;100.00
3590;BME280;1809;48.470;9.226;2022-12-18T06:48:32;125230.38;;;-10.41;100.00
3590;BME280;1809;48.470;9.226;2022-12-18T06:50:57;124192.63;;;-10.59;100.00
3590;BME280;1809;48.470;9.226;2022-12-18T06:53:23;123506.47;;;-10.69;100.00
3590;BME280;1809;48.470;9.226;2022-12-18T06:55:49;123507.53;;;-10.68;100.00
3590;BME280;1809;48.470;9.226;2022-12-18T06:58:15;123174.41;;;-10.68;100.00
3590;BME280;1809;48.470;9.226;2022-12-18T07:00:41;122142.41;;;-10.84;100.00
3590;BME280;1809;48.470;9.226;2022-12-18T07:03:06;121127.47;;;-10.93;100.00
3590;BME280;1809;48.470;9.226;2022-12-18T07:05:31;119762.47;;;-11.10;100.00
3590;BME280;1809;48.470;9.226;2022-12-18T07:07:57;119086.41;;;-11.15;100.00
3590;BME280;1809;48.470;9.226;2022-12-18T07:10:23;119089.41;;;-11.14;100.00
3590;BME280;1809;48.470;9.226;2022-12-18T07:12:48;120480.22;;;-10.83;100.00
3590;BME280;1809;48.470;9.226;2022-12-18T07:15:14;120819.09;;;-10.80;100.00
3590;BME280;1809;48.470;9.226;2022-12-18T07:17:39;120472.13;;;-10.87;100.00
3590;BME280;1809;48.470;9.226;2022-12-18T07:20:04;124609.56;;;-10.19;100.00
3590;BME280;1809;48.470;9.226;2022-12-18T07:22:30;134728.91;;;-8.25;100.00
3590;BME280;1809;48.470;9.226;2022-12-18T07:24:55;139993.66;;;-7.27;100.00
3590;BME280;1809;48.470;9.226;2022-12-18T07:27:21;144602.66;;;-6.31;100.00
3590;BME280;1809;48.470;9.226;2022-12-18T07:29:46;146735.78;;;-5.87;100.00
3590;BME280;1809;48.470;9.226;2022-12-18T07:32:12;147803.28;;;-5.66;100.00
3590;BME280;1809;48.470;9.226;2022-12-18T07:34:37;148503.47;;;-5.56;100.00
3590;BME280;1809;48.470;9.226;2022-12-18T07:37:02;148859.34;;;-5.49;100.00
3590;BME280;1809;48.470;9.226;2022-12-18T07:39:28;149224.09;;;-5.38;100.00
3590;BME280;1809;48.470;9.226;2022-12-18T07:41:53;149241.66;;;-5.31;100.00
3590;BME280;1809;48.470;9.226;2022-12-18T07:44:37;149595.31;;;-5.25;100.00
3590;BME280;1809;48.470;9.226;2022-12-18T07:47:02;149592.81;;;-5.26;100.00
3590;BME280;1809;48.470;9.226;2022-12-18T07:49:28;149602.84;;;-5.22;100.00
3590;BME280;1809;48.470;9.226;2022-12-18T07:51:57;149600.38;;;-5.23;100.00
3590;BME280;1809;48.470;9.226;2022-12-18T07:54:23;149262.97;;;-5.23;100.00
3590;BME280;1809;48.470;9.226;2022-12-18T07:56:50;149271.75;;;-5.19;100.00
3590;BME280;1809;48.470;9.226;2022-12-18T07:59:15;149284.34;;;-5.14;100.00
3590;BME280;1809;48.470;9.226;2022-12-18T08:01:40;148956.97;;;-5.10;100.00
3590;BME280;1809;48.470;9.226;2022-12-18T08:04:06;148955.69;;;-5.10;100.00
3590;BME280;1809;48.470;9.226;2022-12-18T08:06:31;148629.59;;;-5.05;100.00
3590;BME280;1809;48.470;9.226;2022-12-18T08:08:57;148635.84;;;-5.03;100.00
3590;BME280;1809;48.470;9.226;2022-12-18T08:11:24;148299.72;;;-5.02;100.00
3590;BME280;1809;48.470;9.226;2022-12-18T08:13:50;147954.84;;;-5.04;100.00
3590;BME280;1809;48.470;9.226;2022-12-18T08:16:17;147623.75;;;-5.01;100.00
3590;BME280;1809;48.470;9.226;2022-12-18T08:18:42;147641.13;;;-4.94;100.00
3590;BME280;1809;48.470;9.226;2022-12-18T08:21:13;147298.84;;;-4.96;100.00
3590;BME280;1809;48.470;9.226;2022-12-18T08:23:40;146965.25;;;-4.94;100.00
3590;BME280;1809;48.470;9.226;2022-12-18T08:26:05;146623.06;;;-4.95;100.00
3590;BME280;1809;48.470;9.226;2022-12-18T08:28:31;146285.75;;;-4.95;100.00
3590;BME280;1809;48.470;9.226;2022-12-18T08:30:56;145963.25;;;-4.88;100.00
3590;BME280;1809;48.470;9.226;2022-12-18T08:33:22;145629.72;;;-4.86;100.00
3590;BME280;1809;48.470;9.226;2022-12-18T08:35:47;145290.06;;;-4.86;100.00
3590;BME280;1809;48.470;9.226;2022-12-18T08:38:13;145309.56;;;-4.78;100.00
3590;BME280;1809;48.470;9.226;2022-12-18T08:40:38;144630.28;;;-4.79;100.00
3590;BME280;1809;48.470;9.226;2022-12-18T08:43:03;144302.78;;;-4.75;100.00
3590;BME280;1809;48.470;9.226;2022-12-18T08:45:47;143618.88;;;-4.78;100.00
3590;BME280;1809;48.470;9.226;2022-12-18T08:48:12;143297.41;;;-4.71;100.00
3590;BME280;1809;48.470;9.226;2022-12-18T08:50:38;142960.31;;;-4.70;100.00
3590;BME280;1809;48.470;9.226;2022-12-18T08:53:03;142289.78;;;-4.68;100.00
3590;BME280;1809;48.470;9.226;2022-12-18T08:55:29;141962.25;;;-4.63;100.00
3590;BME280;1809;48.470;9.226;2022-12-18T08:57:54;141292.97;;;-4.60;100.00
3590;BME280;1809;48.470;9.226;2022-12-18T09:00:19;140973.75;;;-4.52;100.00
3590;BME280;1809;48.470;9.226;2022-12-18T09:02:45;140660.31;;;-4.42;100.00
3590;BME280;1809;48.470;9.226;2022-12-18T09:05:10;139993.34;;;-4.38;100.00
3590;BME280;1809;48.470;9.226;2022-12-18T09:07:36;139334.56;;;-4.30;100.00
3590;BME280;1809;48.470;9.226;2022-12-18T09:10:01;138680.41;;;-4.20;100.00
3590;BME280;1809;48.470;9.226;2022-12-18T09:12:26;137326.88;;;-4.21;100.00
3590;BME280;1809;48.470;9.226;2022-12-18T09:14:52;135968.22;;;-4.24;100.00
3590;BME280;1809;48.470;9.226;2022-12-18T09:17:17;135667.81;;;-4.07;100.00
3590;BME280;1809;48.470;9.226;2022-12-18T09:19:42;135032.69;;;-3.89;100.00
3590;BME280;1809;48.470;9.226;2022-12-18T09:22:09;133688.88;;;-3.86;100.00
3590;BME280;1809;48.470;9.226;2022-12-18T09:24:34;131990.00;;;-3.90;100.00
3590;BME280;1809;48.470;9.226;2022-12-18T09:27:00;130287.78;;;-3.97;100.00
3590;BME280;1809;48.470;9.226;2022-12-18T09:29:25;129279.78;;;-3.95;100.00
3590;BME280;1809;48.470;9.226;2022-12-18T09:31:50;128265.63;;;-3.96;100.00
3590;BME280;1809;48.470;9.226;2022-12-18T09:34:16;126896.50;;;-4.05;100.00
3590;BME280;1809;48.470;9.226;2022-12-18T09:36:42;126917.69;;;-3.95;100.00
3590;BME280;1809;48.470;9.226;2022-12-18T09:39:07;127315.56;;;-3.66;100.00
3590;BME280;1809;48.470;9.226;2022-12-18T09:41:35;125611.25;;;-3.75;100.00
3590;BME280;1809;48.470;9.226;2022-12-18T09:47:03;123590.97;;;-3.74;100.00
3590;BME280;1809;48.470;9.226;2022-12-18T09:49:36;122910.91;;;-3.77;100.00
3590;BME280;1809;48.470;9.226;2022-12-18T09:52:12;122585.31;;;-3.71;100.00
3590;BME280;1809;48.470;9.226;2022-12-18T09:54:40;121228.88;;;-3.76;100.00
3590;BME280;1809;48.470;9.226;2022-12-18T09:57:12;120544.41;;;-3.82;100.00
3590;BME280;1809;48.470;9.226;2022-12-18T09:59:38;120573.56;;;-3.67;100.00
3590;BME280;1809;48.470;9.226;2022-12-18T10:02:19;120248.91;;;-3.61;100.00
3590;BME280;1809;48.470;9.226;2022-12-18T10:05:02;118885.41;;;-3.69;100.00
3590;BME280;1809;48.470;9.226;2022-12-18T10:07:43;118892.34;;;-3.66;100.00
3590;BME280;1809;48.470;9.226;2022-12-18T10:16:16;117237.28;;;-3.52;100.00
3590;BME280;1809;48.470;9.226;2022-12-18T10:21:50;116291.97;;;-3.18;100.00
3590;BME280;1809;48.470;9.226;2022-12-18T10:27:14;113583.31;;;-3.28;100.00
3590;BME280;1809;48.470;9.226;2022-12-18T10:29:44;112557.78;;;-3.37;100.00
3590;BME280;1809;48.470;9.226;2022-12-18T10:32:15;112557.78;;;-3.37;100.00
3590;BME280;1809;48.470;9.226;2022-12-18T10:34:48;113606.03;;;-3.15;100.00
3590;BME280;1809;48.470;9.226;2022-12-18T10:37:19;112944.69;;;-3.09;100.00
3590;BME280;1809;48.470;9.226;2022-12-18T10:39:46;111944.28;;;-3.05;100.00
3590;BME280;1809;48.470;9.226;2022-12-18T10:42:18;111282.09;;;-2.99;100.00
3590;BME280;1809;48.470;9.226;2022-12-18T10:44:43;110975.44;;;-2.83;100.00
3590;BME280;1809;48.470;9.226;2022-12-18T10:47:14;109640.69;;;-2.78;100.00
3590;BME280;1809;48.470;9.226;2022-12-18T10:49:49;107269.56;;;-2.88;100.00
3590;BME280;1809;48.470;9.226;2022-12-18T10:52:18;105919.22;;;-2.92;100.00
3590;BME280;1809;48.470;9.226;2022-12-18T10:54:55;105247.84;;;-2.92;100.00
3590;BME280;1809;48.470;9.226;2022-12-18T10:59:54;106612.03;;;-2.80;100.00
3590;BME280;1809;48.470;9.226;2022-12-18T11:02:40;106617.34;;;-2.77;100.00
3590;BME280;1809;48.470;9.226;2022-12-18T11:07:50;105619.53;;;-2.72;100.00
3590;BME280;1809;48.470;9.226;2022-12-18T11:10:20;104969.78;;;-2.59;100.00
3590;BME280;1809;48.470;9.226;2022-12-18T11:12:47;103627.63;;;-2.58;100.00
3590;BME280;1809;48.470;9.226;2022-12-18T11:15:27;101597.16;;;-2.68;100.00
3590;BME280;1809;48.470;9.226;2022-12-18T11:17:53;102288.50;;;-2.56;100.00
3590;BME280;1809;48.470;9.226;2022-12-18T11:22:58;101970.69;;;-2.46;100.00
3590;BME280;1809;48.470;9.226;2022-12-18T11:25:24;100976.59;;;-2.38;100.00
3590;BME280;1809;48.470;9.226;2022-12-18T11:27:56;98928.59;;;-2.60;100.00
3590;BME280;1809;48.470;9.226;2022-12-18T11:30:33;99269.59;;;-2.56;100.00
3590;BME280;1809;48.470;9.226;2022-12-18T11:33:35;100642.75;;;-2.37;100.00
3590;BME280;1809;48.470;9.226;2022-12-18T11:36:03;99628.88;;;-2.42;100.00
3590;BME280;1809;48.470;9.226;2022-12-18T11:38:32;99632.19;;;-2.40;100.00
3590;BME280;1809;48.470;9.226;2022-12-18T11:41:26;97955.53;;;-2.40;100.00
3590;BME280;1809;48.470;9.226;2022-12-18T11:44:21;98310.38;;;-2.28;100.00
3590;BME280;1809;48.470;9.226;2022-12-18T11:47:03;97979.91;;;-2.25;100.00
3590;BME280;1809;48.470;9.226;2022-12-18T11:49:34;96624.41;;;-2.34;100.00
3590;BME280;1809;48.470;9.226;2022-12-18T11:54:35;96661.25;;;-2.10;100.00
3590;BME280;1809;48.470;9.226;2022-12-18T12:07:46;93947.31;;;-2.32;100.00
3590;BME280;1809;48.470;9.226;2022-12-18T12:10:37;95282.47;;;-2.35;100.00
3590;BME280;1809;48.470;9.226;2022-12-18T12:18:51;95997.13;;;-2.06;100.00
3590;BME280;1809;48.470;9.226;2022-12-18T12:21:41;93313.09;;;-2.08;100.00
3590;BME280;1809;48.470;9.226;2022-12-18T12:24:24;90295.16;;;-2.11;100.00
3590;BME280;1809;48.470;9.226;2022-12-18T12:32:25;89276.56;;;-2.22;100.00
3590;BME280;1809;48.470;9.226;2022-12-18T12:40:19;86937.19;;;-2.21;100.00
3590;BME280;1809;48.470;9.226;2022-12-18T12:42:54;86250.16;;;-2.34;100.00
3590;BME280;1809;48.470;9.226;2022-12-18T12:48:16;86608.66;;;-2.17;100.00
3590;BME280;1809;48.470;9.226;2022-12-18T12:50:43;85607.38;;;-2.15;100.00
3590;BME280;1809;48.470;9.226;2022-12-18T12:53:16;83261.28;;;-2.21;100.00
3590;BME280;1809;48.470;9.226;2022-12-18T12:55:44;83941.00;;;-2.12;100.00
3590;BME280;1809;48.470;9.226;2022-12-18T13:01:10;83259.22;;;-2.23;100.00
3590;BME280;1809;48.470;9.226;2022-12-18T13:06:46;82568.25;;;-2.40;100.00
3590;BME280;1809;48.470;9.226;2022-12-18T13:09:15;84245.81;;;-2.34;100.00
3590;BME280;1809;48.470;9.226;2022-12-18T13:11:45;85590.41;;;-2.28;100.00
3590;BME280;1809;48.470;9.226;2022-12-18T13:14:33;85261.91;;;-2.24;100.00
3590;BME280;1809;48.470;9.226;2022-12-18T13:19:44;84256.94;;;-2.26;100.00
3590;BME280;1809;48.470;9.226;2022-12-18T13:22:24;84263.22;;;-2.21;100.00
3590;BME280;1809;48.470;9.226;2022-12-18T13:24:53;85254.88;;;-2.29;100.00
3590;BME280;1809;48.470;9.226;2022-12-18T13:35:52;88560.66;;;-2.54;100.00
3590;BME280;1809;48.470;9.226;2022-12-18T13:38:33;89574.75;;;-2.46;100.00
3590;BME280;1809;48.470;9.226;2022-12-18T13:43:45;91219.22;;;-2.65;100.00
3590;BME280;1809;48.470;9.226;2022-12-18T13:46:20;93569.00;;;-2.60;100.00
3590;BME280;1809;48.470;9.226;2022-12-18T13:48:56;93554.25;;;-2.69;100.00
3590;BME280;1809;48.470;9.226;2022-12-18T13:51:24;94246.28;;;-2.55;100.00
3590;BME280;1809;48.470;9.226;2022-12-18T13:53:53;94258.00;;;-2.47;100.00
3590;BME280;1809;48.470;9.226;2022-12-18T13:56:28;92564.22;;;-2.60;100.00
3590;BME280;1809;48.470;9.226;2022-12-18T13:59:24;92876.53;;;-2.75;100.00
3590;BME280;1809;48.470;9.226;2022-12-18T14:01:56;94552.91;;;-2.73;100.00
3590;BME280;1809;48.470;9.226;2022-12-18T14:06:51;95896.88;;;-2.70;100.00
3590;BME280;1809;48.470;9.226;2022-12-18T14:09:24;95555.69;;;-2.74;100.00
3590;BME280;1809;48.470;9.226;2022-12-18T14:11:50;96227.00;;;-2.73;100.00
3590;BME280;1809;48.470;9.226;2022-12-18T14:14:17;96554.72;;;-2.78;100.00
3590;BME280;1809;48.470;9.226;2022-12-18T14:16:43;96557.09;;;-2.76;100.00
3590;BME280;1809;48.470;9.226;2022-12-18T14:19:16;97243.16;;;-2.66;100.00
3590;BME280;1809;48.470;9.226;2022-12-18T14:21:47;96220.59;;;-2.77;100.00
3590;BME280;1809;48.470;9.226;2022-12-18T14:24:19;96901.69;;;-2.70;100.00
3590;BME280;1809;48.470;9.226;2022-12-18T14:26:45;96893.66;;;-2.75;100.00
3590;BME280;1809;48.470;9.226;2022-12-18T14:29:28;96553.91;;;-2.78;100.00
3590;BME280;1809;48.470;9.226;2022-12-18T14:32:13;96859.91;;;-2.96;100.00
3590;BME280;1809;48.470;9.226;2022-12-18T14:34:42;97177.81;;;-3.07;100.00
3590;BME280;1809;48.470;9.226;2022-12-18T14:37:12;98516.47;;;-3.07;100.00
3590;BME280;1809;48.470;9.226;2022-12-18T14:39:38;99503.25;;;-3.18;100.00
3590;BME280;1809;48.470;9.226;2022-12-18T14:42:03;102204.41;;;-3.06;100.00
3590;BME280;1809;48.470;9.226;2022-12-18T14:44:29;102517.56;;;-3.19;100.00
3590;BME280;1809;48.470;9.226;2022-12-18T14:46:54;103518.28;;;-3.22;100.00
3590;BME280;1809;48.470;9.226;2022-12-18T14:49:41;104858.13;;;-3.23;100.00